sensor_id;sensor_type;location;lat;lon;timestamp;P1;durP1;ratioP1;P2;durP2;ratioP2
12719;SDS011;6424;48.520;11.228;2023-04-15T00:00:42;5.60;;;5.00;;
12719;SDS011;6424;48.520;11.228;2023-04-15T00:03:23;6.13;;;5.53;;
12719;SDS011;6424;48.520;11.228;2023-04-15T00:06:03;6.30;;;5.33;;
12719;SDS011;6424;48.520;11.228;2023-04-15T00:08:45;5.70;;;5.20;;
12719;SDS011;6424;48.520;11.228;2023-04-15T00:11:26;5.97;;;5.10;;
12719;SDS011;6424;48.520;11.228;2023-04-15T00:14:07;6.27;;;5.10;;
12719;SDS011;6424;48.520;11.228;2023-04-15T00:16:48;5.23;;;4.70;;
12719;SDS011;6424;48.520;11.228;2023-04-15T00:19:35;8.60;;;5.70;;
12719;SDS011;6424;48.520;11.228;2023-04-15T00:22:15;6.23;;;5.47;;
12719;SDS011;6424;48.520;11.228;2023-04-15T00:24:57;6.90;;;5.30;;
12719;SDS011;6424;48.520;11.228;2023-04-15T00:27:38;7.83;;;5.87;;
12719;SDS011;6424;48.520;11.228;2023-04-15T00:30:18;5.63;;;5.10;;
12719;SDS011;6424;48.520;11.228;2023-04-15T00:33:00;7.70;;;5.17;;
12719;SDS011;6424;48.520;11.228;2023-04-15T00:35:41;6.00;;;5.03;;
12719;SDS011;6424;48.520;11.228;2023-04-15T00:38:22;7.67;;;5.80;;
12719;SDS011;6424;48.520;11.228;2023-04-15T00:41:03;6.43;;;5.77;;
12719;SDS011;6424;48.520;11.228;2023-04-15T00:43:44;7.63;;;5.80;;
12719;SDS011;6424;48.520;11.228;2023-04-15T00:46:25;6.43;;;5.40;;
12719;SDS011;6424;48.520;11.228;2023-04-15T00:49:08;6.37;;;5.77;;
12719;SDS011;6424;48.520;11.228;2023-04-15T00:51:49;6.03;;;5.50;;
12719;SDS011;6424;48.520;11.228;2023-04-15T00:54:30;6.47;;;5.87;;
12719;SDS011;6424;48.520;11.228;2023-04-15T00:57:11;7.30;;;5.87;;
12719;SDS011;6424;48.520;11.228;2023-04-15T00:59:51;8.47;;;5.90;;
12719;SDS011;6424;48.520;11.228;2023-04-15T01:02:34;8.57;;;5.63;;
12719;SDS011;6424;48.520;11.228;2023-04-15T01:05:15;5.87;;;5.37;;
12719;SDS011;6424;48.520;11.228;2023-04-15T01:07:42;8.73;;;5.67;;
12719;SDS011;6424;48.520;11.228;2023-04-15T01:10:08;9.60;;;6.23;;
12719;SDS011;6424;48.520;11.228;2023-04-15T01:12:49;7.17;;;6.43;;
12719;SDS011;6424;48.520;11.228;2023-04-15T01:15:30;6.87;;;6.17;;
12719;SDS011;6424;48.520;11.228;2023-04-15T01:18:11;8.00;;;6.50;;
12719;SDS011;6424;48.520;11.228;2023-04-15T01:20:52;6.80;;;6.07;;
12719;SDS011;6424;48.520;11.228;2023-04-15T01:23:35;7.27;;;6.40;;
12719;SDS011;6424;48.520;11.228;2023-04-15T01:26:17;7.13;;;6.43;;
12719;SDS011;6424;48.520;11.228;2023-04-15T01:28:59;7.47;;;6.03;;
12719;SDS011;6424;48.520;11.228;2023-04-15T01:31:40;6.87;;;6.17;;
12719;SDS011;6424;48.520;11.228;2023-04-15T01:34:28;6.60;;;5.90;;
12719;SDS011;6424;48.520;11.228;2023-04-15T01:37:09;6.80;;;6.00;;
12719;SDS011;6424;48.520;11.228;2023-04-15T01:39:50;8.87;;;6.50;;
12719;SDS011;6424;48.520;11.228;2023-04-15T01:42:31;7.23;;;6.53;;
12719;SDS011;6424;48.520;11.228;2023-04-15T01:45:14;7.43;;;6.03;;
12719;SDS011;6424;48.520;11.228;2023-04-15T01:47:55;8.40;;;6.67;;
12719;SDS011;6424;48.520;11.228;2023-04-15T01:50:35;8.20;;;6.83;;
12719;SDS011;6424;48.520;11.228;2023-04-15T01:53:17;8.77;;;6.60;;
12719;SDS011;6424;48.520;11.228;2023-04-15T01:55:58;6.97;;;6.27;;
12719;SDS011;6424;48.520;11.228;2023-04-15T01:58:38;9.43;;;6.60;;
12719;SDS011;6424;48.520;11.228;2023-04-15T02:01:19;9.13;;;6.90;;
12719;SDS011;6424;48.520;11.228;2023-04-15T02:04:01;7.60;;;6.73;;
12719;SDS011;6424;48.520;11.228;2023-04-15T02:06:42;8.90;;;6.63;;
12719;SDS011;6424;48.520;11.228;2023-04-15T02:09:23;8.10;;;7.00;;
12719;SDS011;6424;48.520;11.228;2023-04-15T02:12:04;8.63;;;7.03;;
12719;SDS011;6424;48.520;11.228;2023-04-15T02:14:45;9.47;;;7.10;;
12719;SDS011;6424;48.520;11.228;2023-04-15T02:17:11;7.93;;;6.90;;
12719;SDS011;6424;48.520;11.228;2023-04-15T02:19:52;8.50;;;6.70;;
12719;SDS011;6424;48.520;11.228;2023-04-15T02:22:17;7.73;;;6.17;;
12719;SDS011;6424;48.520;11.228;2023-04-15T02:24:43;7.70;;;6.70;;
12719;SDS011;6424;48.520;11.228;2023-04-15T02:27:25;7.57;;;6.60;;
12719;SDS011;6424;48.520;11.228;2023-04-15T02:30:07;7.63;;;6.63;;
12719;SDS011;6424;48.520;11.228;2023-04-15T02:32:48;11.17;;;7.17;;
12719;SDS011;6424;48.520;11.228;2023-04-15T02:35:29;7.50;;;6.80;;
12719;SDS011;6424;48.520;11.228;2023-04-15T02:38:10;8.90;;;6.57;;
12719;SDS011;6424;48.520;11.228;2023-04-15T02:40:36;6.83;;;6.10;;
12719;SDS011;6424;48.520;11.228;2023-04-15T02:43:17;8.67;;;7.20;;
12719;SDS011;6424;48.520;11.228;2023-04-15T02:45:57;8.30;;;6.93;;
12719;SDS011;6424;48.520;11.228;2023-04-15T02:48:38;6.80;;;6.10;;
12719;SDS011;6424;48.520;11.228;2023-04-15T02:51:20;7.43;;;5.97;;
12719;SDS011;6424;48.520;11.228;2023-04-15T02:54:01;8.57;;;5.97;;
12719;SDS011;6424;48.520;11.228;2023-04-15T02:56:42;7.70;;;6.90;;
12719;SDS011;6424;48.520;11.228;2023-04-15T02:59:23;8.43;;;6.90;;
12719;SDS011;6424;48.520;11.228;2023-04-15T03:02:04;7.70;;;6.87;;
12719;SDS011;6424;48.520;11.228;2023-04-15T03:04:31;8.20;;;6.27;;
12719;SDS011;6424;48.520;11.228;2023-04-15T03:07:12;7.87;;;6.47;;
12719;SDS011;6424;48.520;11.228;2023-04-15T03:09:53;7.60;;;6.80;;
12719;SDS011;6424;48.520;11.228;2023-04-15T03:12:34;8.23;;;5.87;;
12719;SDS011;6424;48.520;11.228;2023-04-15T03:15:15;8.83;;;6.93;;
12719;SDS011;6424;48.520;11.228;2023-04-15T03:17:56;6.77;;;6.07;;
12719;SDS011;6424;48.520;11.228;2023-04-15T03:20:37;7.73;;;6.63;;
12719;SDS011;6424;48.520;11.228;2023-04-15T03:23:17;9.90;;;6.40;;
12719;SDS011;6424;48.520;11.228;2023-04-15T03:26:02;8.13;;;7.00;;
12719;SDS011;6424;48.520;11.228;2023-04-15T03:28:43;7.40;;;6.23;;
12719;SDS011;6424;48.520;11.228;2023-04-15T03:31:24;6.50;;;5.90;;
12719;SDS011;6424;48.520;11.228;2023-04-15T03:34:05;7.50;;;6.80;;
12719;SDS011;6424;48.520;11.228;2023-04-15T03:36:46;8.03;;;6.10;;
12719;SDS011;6424;48.520;11.228;2023-04-15T03:39:11;6.53;;;5.90;;
12719;SDS011;6424;48.520;11.228;2023-04-15T03:41:52;7.43;;;6.50;;
12719;SDS011;6424;48.520;11.228;2023-04-15T03:44:33;6.67;;;5.93;;
12719;SDS011;6424;48.520;11.228;2023-04-15T03:47:14;10.73;;;6.87;;
12719;SDS011;6424;48.520;11.228;2023-04-15T03:49:55;6.20;;;5.60;;
12719;SDS011;6424;48.520;11.228;2023-04-15T03:52:36;7.37;;;6.57;;
12719;SDS011;6424;48.520;11.228;2023-04-15T03:55:17;9.03;;;6.50;;
12719;SDS011;6424;48.520;11.228;2023-04-15T03:57:58;7.23;;;6.17;;
12719;SDS011;6424;48.520;11.228;2023-04-15T04:00:39;9.63;;;7.40;;
12719;SDS011;6424;48.520;11.228;2023-04-15T04:03:20;10.43;;;5.90;;
12719;SDS011;6424;48.520;11.228;2023-04-15T04:06:01;7.53;;;6.70;;
12719;SDS011;6424;48.520;11.228;2023-04-15T04:08:42;8.40;;;6.47;;
12719;SDS011;6424;48.520;11.228;2023-04-15T04:11:23;7.93;;;6.93;;
12719;SDS011;6424;48.520;11.228;2023-04-15T04:13:49;13.40;;;7.23;;
12719;SDS011;6424;48.520;11.228;2023-04-15T04:16:29;7.70;;;6.87;;
12719;SDS011;6424;48.520;11.228;2023-04-15T04:18:55;7.90;;;7.07;;
12719;SDS011;6424;48.520;11.228;2023-04-15T04:21:36;9.07;;;7.53;;
12719;SDS011;6424;48.520;11.228;2023-04-15T04:24:18;9.23;;;6.83;;
12719;SDS011;6424;48.520;11.228;2023-04-15T04:26:59;8.67;;;7.00;;
12719;SDS011;6424;48.520;11.228;2023-04-15T04:29:40;7.60;;;6.70;;
12719;SDS011;6424;48.520;11.228;2023-04-15T04:32:21;7.60;;;6.90;;
12719;SDS011;6424;48.520;11.228;2023-04-15T04:35:02;8.40;;;7.03;;
12719;SDS011;6424;48.520;11.228;2023-04-15T04:37:43;7.27;;;6.30;;
12719;SDS011;6424;48.520;11.228;2023-04-15T04:40:09;7.40;;;6.60;;
12719;SDS011;6424;48.520;11.228;2023-04-15T04:42:50;9.93;;;7.43;;
12719;SDS011;6424;48.520;11.228;2023-04-15T04:45:31;9.20;;;7.30;;
12719;SDS011;6424;48.520;11.228;2023-04-15T04:48:12;7.60;;;6.13;;
12719;SDS011;6424;48.520;11.228;2023-04-15T04:50:53;7.70;;;6.63;;
12719;SDS011;6424;48.520;11.228;2023-04-15T04:53:34;8.97;;;6.60;;
12719;SDS011;6424;48.520;11.228;2023-04-15T04:56:16;8.17;;;6.37;;
12719;SDS011;6424;48.520;11.228;2023-04-15T04:58:57;6.90;;;6.20;;
12719;SDS011;6424;48.520;11.228;2023-04-15T05:01:38;10.00;;;6.70;;
12719;SDS011;6424;48.520;11.228;2023-04-15T05:04:18;7.60;;;6.60;;
12719;SDS011;6424;48.520;11.228;2023-04-15T05:06:44;7.00;;;6.30;;
12719;SDS011;6424;48.520;11.228;2023-04-15T05:09:25;7.47;;;6.00;;
12719;SDS011;6424;48.520;11.228;2023-04-15T05:12:06;7.03;;;5.93;;
12719;SDS011;6424;48.520;11.228;2023-04-15T05:14:48;10.70;;;6.13;;
12719;SDS011;6424;48.520;11.228;2023-04-15T05:17:28;7.53;;;6.73;;
12719;SDS011;6424;48.520;11.228;2023-04-15T05:20:12;7.27;;;6.50;;
12719;SDS011;6424;48.520;11.228;2023-04-15T05:22:53;11.73;;;7.80;;
12719;SDS011;6424;48.520;11.228;2023-04-15T05:25:34;9.67;;;7.60;;
12719;SDS011;6424;48.520;11.228;2023-04-15T05:28:15;6.47;;;5.87;;
12719;SDS011;6424;48.520;11.228;2023-04-15T05:30:56;9.47;;;6.93;;
12719;SDS011;6424;48.520;11.228;2023-04-15T05:33:37;6.50;;;5.27;;
12719;SDS011;6424;48.520;11.228;2023-04-15T05:36:17;7.33;;;6.30;;
12719;SDS011;6424;48.520;11.228;2023-04-15T05:38:58;8.43;;;6.00;;
12719;SDS011;6424;48.520;11.228;2023-04-15T05:41:39;7.47;;;5.70;;
12719;SDS011;6424;48.520;11.228;2023-04-15T05:44:20;6.90;;;5.90;;
12719;SDS011;6424;48.520;11.228;2023-04-15T05:47:01;7.73;;;5.63;;
12719;SDS011;6424;48.520;11.228;2023-04-15T05:49:42;7.23;;;5.73;;
12719;SDS011;6424;48.520;11.228;2023-04-15T05:52:23;6.43;;;5.80;;
12719;SDS011;6424;48.520;11.228;2023-04-15T05:54:49;8.87;;;6.77;;
12719;SDS011;6424;48.520;11.228;2023-04-15T05:57:30;7.77;;;6.60;;
12719;SDS011;6424;48.520;11.228;2023-04-15T06:00:11;7.30;;;5.80;;
12719;SDS011;6424;48.520;11.228;2023-04-15T06:02:52;8.20;;;6.27;;
12719;SDS011;6424;48.520;11.228;2023-04-15T06:05:18;10.23;;;8.07;;
12719;SDS011;6424;48.520;11.228;2023-04-15T06:07:59;8.77;;;7.53;;
12719;SDS011;6424;48.520;11.228;2023-04-15T06:10:40;10.87;;;6.27;;
12719;SDS011;6424;48.520;11.228;2023-04-15T06:13:21;8.07;;;6.97;;
12719;SDS011;6424;48.520;11.228;2023-04-15T06:16:02;7.57;;;5.60;;
12719;SDS011;6424;48.520;11.228;2023-04-15T06:18:43;7.03;;;6.00;;
12719;SDS011;6424;48.520;11.228;2023-04-15T06:21:24;6.60;;;5.43;;
12719;SDS011;6424;48.520;11.228;2023-04-15T06:24:06;6.50;;;5.30;;
12719;SDS011;6424;48.520;11.228;2023-04-15T06:26:47;7.70;;;5.57;;
12719;SDS011;6424;48.520;11.228;2023-04-15T06:29:27;8.43;;;5.50;;
12719;SDS011;6424;48.520;11.228;2023-04-15T06:32:08;7.53;;;5.90;;
12719;SDS011;6424;48.520;11.228;2023-04-15T06:34:50;6.90;;;5.47;;
12719;SDS011;6424;48.520;11.228;2023-04-15T06:37:30;8.23;;;5.30;;
12719;SDS011;6424;48.520;11.228;2023-04-15T06:40:11;6.30;;;5.10;;
12719;SDS011;6424;48.520;11.228;2023-04-15T06:42:37;7.63;;;4.97;;
12719;SDS011;6424;48.520;11.228;2023-04-15T06:45:18;6.63;;;5.47;;
12719;SDS011;6424;48.520;11.228;2023-04-15T06:47:59;7.77;;;5.40;;
12719;SDS011;6424;48.520;11.228;2023-04-15T06:50:25;6.70;;;5.77;;
12719;SDS011;6424;48.520;11.228;2023-04-15T06:53:06;5.60;;;5.10;;
12719;SDS011;6424;48.520;11.228;2023-04-15T06:55:47;7.00;;;5.47;;
12719;SDS011;6424;48.520;11.228;2023-04-15T06:58:13;8.17;;;5.73;;
12719;SDS011;6424;48.520;11.228;2023-04-15T07:00:53;7.30;;;5.33;;
12719;SDS011;6424;48.520;11.228;2023-04-15T07:03:34;7.23;;;5.63;;
12719;SDS011;6424;48.520;11.228;2023-04-15T07:06:15;7.93;;;5.50;;
12719;SDS011;6424;48.520;11.228;2023-04-15T07:08:56;7.63;;;5.33;;
12719;SDS011;6424;48.520;11.228;2023-04-15T07:11:37;7.37;;;5.63;;
12719;SDS011;6424;48.520;11.228;2023-04-15T07:14:18;6.97;;;5.60;;
12719;SDS011;6424;48.520;11.228;2023-04-15T07:16:59;9.23;;;5.27;;
12719;SDS011;6424;48.520;11.228;2023-04-15T07:19:39;7.70;;;5.97;;
12719;SDS011;6424;48.520;11.228;2023-04-15T07:22:20;9.37;;;7.10;;
12719;SDS011;6424;48.520;11.228;2023-04-15T07:25:01;17.17;;;10.80;;
12719;SDS011;6424;48.520;11.228;2023-04-15T07:27:42;10.70;;;7.43;;
12719;SDS011;6424;48.520;11.228;2023-04-15T07:30:23;19.13;;;11.07;;
12719;SDS011;6424;48.520;11.228;2023-04-15T07:33:04;8.90;;;5.47;;
12719;SDS011;6424;48.520;11.228;2023-04-15T07:35:29;9.93;;;5.73;;
12719;SDS011;6424;48.520;11.228;2023-04-15T07:38:10;8.90;;;6.30;;
12719;SDS011;6424;48.520;11.228;2023-04-15T07:40:54;11.33;;;7.60;;
12719;SDS011;6424;48.520;11.228;2023-04-15T07:43:35;12.43;;;8.83;;
12719;SDS011;6424;48.520;11.228;2023-04-15T07:46:16;6.67;;;5.00;;
12719;SDS011;6424;48.520;11.228;2023-04-15T07:48:42;5.93;;;5.03;;
12719;SDS011;6424;48.520;11.228;2023-04-15T07:51:23;11.10;;;4.87;;
12719;SDS011;6424;48.520;11.228;2023-04-15T07:54:03;7.13;;;4.70;;
12719;SDS011;6424;48.520;11.228;2023-04-15T07:56:44;6.47;;;4.23;;
12719;SDS011;6424;48.520;11.228;2023-04-15T07:59:25;5.13;;;4.00;;
12719;SDS011;6424;48.520;11.228;2023-04-15T08:02:10;6.13;;;3.97;;
12719;SDS011;6424;48.520;11.228;2023-04-15T08:04:36;8.17;;;4.20;;
12719;SDS011;6424;48.520;11.228;2023-04-15T08:07:17;6.27;;;4.60;;
12719;SDS011;6424;48.520;11.228;2023-04-15T08:09:58;4.27;;;3.83;;
12719;SDS011;6424;48.520;11.228;2023-04-15T08:12:39;7.03;;;4.37;;
12719;SDS011;6424;48.520;11.228;2023-04-15T08:15:20;6.87;;;4.00;;
12719;SDS011;6424;48.520;11.228;2023-04-15T08:18:01;6.13;;;3.73;;
12719;SDS011;6424;48.520;11.228;2023-04-15T08:20:42;5.53;;;3.80;;
12719;SDS011;6424;48.520;11.228;2023-04-15T08:23:08;4.07;;;3.50;;
12719;SDS011;6424;48.520;11.228;2023-04-15T08:25:49;5.37;;;3.73;;
12719;SDS011;6424;48.520;11.228;2023-04-15T08:28:29;4.10;;;3.50;;
12719;SDS011;6424;48.520;11.228;2023-04-15T08:31:11;6.57;;;3.57;;
12719;SDS011;6424;48.520;11.228;2023-04-15T08:33:55;5.10;;;3.77;;
12719;SDS011;6424;48.520;11.228;2023-04-15T08:36:36;5.53;;;3.33;;
12719;SDS011;6424;48.520;11.228;2023-04-15T08:39:17;4.67;;;3.67;;
12719;SDS011;6424;48.520;11.228;2023-04-15T08:41:59;4.87;;;3.70;;
12719;SDS011;6424;48.520;11.228;2023-04-15T08:44:41;5.57;;;3.27;;
12719;SDS011;6424;48.520;11.228;2023-04-15T08:47:25;3.60;;;3.30;;
12719;SDS011;6424;48.520;11.228;2023-04-15T08:50:10;5.17;;;3.40;;
12719;SDS011;6424;48.520;11.228;2023-04-15T08:52:53;6.80;;;3.33;;
12719;SDS011;6424;48.520;11.228;2023-04-15T08:55:35;4.53;;;3.70;;
12719;SDS011;6424;48.520;11.228;2023-04-15T08:58:23;4.73;;;3.57;;
12719;SDS011;6424;48.520;11.228;2023-04-15T09:01:05;5.20;;;3.50;;
12719;SDS011;6424;48.520;11.228;2023-04-15T09:03:47;5.63;;;3.77;;
12719;SDS011;6424;48.520;11.228;2023-04-15T09:06:28;6.33;;;3.67;;
12719;SDS011;6424;48.520;11.228;2023-04-15T09:09:09;5.57;;;3.80;;
12719;SDS011;6424;48.520;11.228;2023-04-15T09:11:53;5.50;;;3.60;;
12719;SDS011;6424;48.520;11.228;2023-04-15T09:14:34;6.67;;;3.60;;
12719;SDS011;6424;48.520;11.228;2023-04-15T09:17:18;5.03;;;3.60;;
12719;SDS011;6424;48.520;11.228;2023-04-15T09:20:10;4.60;;;3.83;;
12719;SDS011;6424;48.520;11.228;2023-04-15T09:22:52;5.60;;;3.47;;
12719;SDS011;6424;48.520;11.228;2023-04-15T09:25:33;4.57;;;4.17;;
12719;SDS011;6424;48.520;11.228;2023-04-15T09:28:14;6.10;;;3.80;;
12719;SDS011;6424;48.520;11.228;2023-04-15T09:30:47;5.30;;;3.77;;
12719;SDS011;6424;48.520;11.228;2023-04-15T09:33:53;4.27;;;3.60;;
12719;SDS011;6424;48.520;11.228;2023-04-15T09:36:40;5.47;;;4.00;;
12719;SDS011;6424;48.520;11.228;2023-04-15T09:39:49;6.27;;;3.50;;
12719;SDS011;6424;48.520;11.228;2023-04-15T09:42:31;5.80;;;4.63;;
12719;SDS011;6424;48.520;11.228;2023-04-15T09:45:12;5.20;;;4.57;;
12719;SDS011;6424;48.520;11.228;2023-04-15T09:47:53;4.23;;;3.83;;
12719;SDS011;6424;48.520;11.228;2023-04-15T09:50:35;7.43;;;4.37;;
12719;SDS011;6424;48.520;11.228;2023-04-15T09:53:23;10.03;;;4.87;;
12719;SDS011;6424;48.520;11.228;2023-04-15T09:55:54;6.53;;;4.90;;
12719;SDS011;6424;48.520;11.228;2023-04-15T09:58:42;5.17;;;3.87;;
12719;SDS011;6424;48.520;11.228;2023-04-15T10:01:23;6.83;;;4.83;;
12719;SDS011;6424;48.520;11.228;2023-04-15T10:04:04;5.13;;;4.27;;
12719;SDS011;6424;48.520;11.228;2023-04-15T10:06:46;5.17;;;4.70;;
12719;SDS011;6424;48.520;11.228;2023-04-15T10:09:27;7.13;;;5.30;;
12719;SDS011;6424;48.520;11.228;2023-04-15T10:12:08;5.27;;;4.40;;
12719;SDS011;6424;48.520;11.228;2023-04-15T10:14:59;4.93;;;4.17;;
12719;SDS011;6424;48.520;11.228;2023-04-15T10:17:45;6.40;;;4.40;;
12719;SDS011;6424;48.520;11.228;2023-04-15T10:20:29;5.93;;;4.43;;
12719;SDS011;6424;48.520;11.228;2023-04-15T10:23:10;6.87;;;4.50;;
12719;SDS011;6424;48.520;11.228;2023-04-15T10:25:52;6.60;;;4.77;;
12719;SDS011;6424;48.520;11.228;2023-04-15T10:28:34;11.37;;;5.30;;
12719;SDS011;6424;48.520;11.228;2023-04-15T10:31:14;9.20;;;5.20;;
12719;SDS011;6424;48.520;11.228;2023-04-15T10:33:57;5.30;;;4.50;;
12719;SDS011;6424;48.520;11.228;2023-04-15T10:36:42;5.20;;;4.70;;
12719;SDS011;6424;48.520;11.228;2023-04-15T10:42:14;5.63;;;4.60;;
12719;SDS011;6424;48.520;11.228;2023-04-15T10:44:56;5.97;;;4.53;;
12719;SDS011;6424;48.520;11.228;2023-04-15T10:47:22;5.33;;;4.83;;
12719;SDS011;6424;48.520;11.228;2023-04-15T10:49:59;9.83;;;4.97;;
12719;SDS011;6424;48.520;11.228;2023-04-15T10:52:41;11.07;;;5.00;;
12719;SDS011;6424;48.520;11.228;2023-04-15T10:55:22;6.37;;;4.83;;
12719;SDS011;6424;48.520;11.228;2023-04-15T10:58:05;6.47;;;4.50;;
12719;SDS011;6424;48.520;11.228;2023-04-15T11:00:50;8.00;;;4.30;;
12719;SDS011;6424;48.520;11.228;2023-04-15T11:03:36;4.70;;;4.10;;
12719;SDS011;6424;48.520;11.228;2023-04-15T11:06:21;6.77;;;4.70;;
12719;SDS011;6424;48.520;11.228;2023-04-15T11:09:30;6.10;;;5.07;;
12719;SDS011;6424;48.520;11.228;2023-04-15T11:12:12;7.43;;;4.97;;
12719;SDS011;6424;48.520;11.228;2023-04-15T11:14:53;10.07;;;6.13;;
12719;SDS011;6424;48.520;11.228;2023-04-15T11:17:34;6.47;;;4.73;;
12719;SDS011;6424;48.520;11.228;2023-04-15T11:20:15;5.57;;;5.00;;
12719;SDS011;6424;48.520;11.228;2023-04-15T11:22:56;6.37;;;4.80;;
12719;SDS011;6424;48.520;11.228;2023-04-15T11:25:37;7.83;;;4.80;;
12719;SDS011;6424;48.520;11.228;2023-04-15T11:28:18;7.97;;;4.67;;
12719;SDS011;6424;48.520;11.228;2023-04-15T11:31:06;9.73;;;5.13;;
12719;SDS011;6424;48.520;11.228;2023-04-15T11:33:57;4.60;;;4.17;;
12719;SDS011;6424;48.520;11.228;2023-04-15T11:36:40;6.40;;;4.17;;
12719;SDS011;6424;48.520;11.228;2023-04-15T11:39:22;5.20;;;4.23;;
12719;SDS011;6424;48.520;11.228;2023-04-15T11:42:11;5.83;;;4.60;;
12719;SDS011;6424;48.520;11.228;2023-04-15T11:45:06;5.07;;;4.57;;
12719;SDS011;6424;48.520;11.228;2023-04-15T11:47:51;8.13;;;4.57;;
12719;SDS011;6424;48.520;11.228;2023-04-15T11:50:32;7.37;;;5.30;;
12719;SDS011;6424;48.520;11.228;2023-04-15T11:53:13;7.53;;;4.60;;
12719;SDS011;6424;48.520;11.228;2023-04-15T11:55:54;7.27;;;4.60;;
12719;SDS011;6424;48.520;11.228;2023-04-15T11:58:35;5.27;;;4.70;;
12719;SDS011;6424;48.520;11.228;2023-04-15T12:01:17;6.47;;;5.47;;
12719;SDS011;6424;48.520;11.228;2023-04-15T12:03:58;7.10;;;6.40;;
12719;SDS011;6424;48.520;11.228;2023-04-15T12:06:40;5.67;;;4.80;;
12719;SDS011;6424;48.520;11.228;2023-04-15T12:09:21;5.57;;;4.87;;
12719;SDS011;6424;48.520;11.228;2023-04-15T12:12:02;6.33;;;4.10;;
12719;SDS011;6424;48.520;11.228;2023-04-15T12:14:42;4.30;;;3.90;;
12719;SDS011;6424;48.520;11.228;2023-04-15T12:17:24;5.10;;;3.90;;
12719;SDS011;6424;48.520;11.228;2023-04-15T12:20:05;15.67;;;7.97;;
12719;SDS011;6424;48.520;11.228;2023-04-15T12:22:32;5.80;;;4.30;;
12719;SDS011;6424;48.520;11.228;2023-04-15T12:25:17;5.13;;;4.33;;
12719;SDS011;6424;48.520;11.228;2023-04-15T12:27:57;4.43;;;4.03;;
12719;SDS011;6424;48.520;11.228;2023-04-15T12:30:47;6.33;;;4.27;;
12719;SDS011;6424;48.520;11.228;2023-04-15T12:33:33;5.03;;;4.53;;
12719;SDS011;6424;48.520;11.228;2023-04-15T12:36:14;5.63;;;4.50;;
12719;SDS011;6424;48.520;11.228;2023-04-15T12:38:55;5.73;;;4.50;;
12719;SDS011;6424;48.520;11.228;2023-04-15T12:41:36;7.10;;;4.77;;
12719;SDS011;6424;48.520;11.228;2023-04-15T12:44:17;7.07;;;4.30;;
12719;SDS011;6424;48.520;11.228;2023-04-15T12:46:58;6.10;;;4.30;;
12719;SDS011;6424;48.520;11.228;2023-04-15T12:49:39;4.50;;;3.73;;
12719;SDS011;6424;48.520;11.228;2023-04-15T12:52:20;4.47;;;3.60;;
12719;SDS011;6424;48.520;11.228;2023-04-15T12:55:01;4.27;;;3.73;;
12719;SDS011;6424;48.520;11.228;2023-04-15T12:57:27;5.93;;;3.53;;
12719;SDS011;6424;48.520;11.228;2023-04-15T13:00:07;6.10;;;3.50;;
12719;SDS011;6424;48.520;11.228;2023-04-15T13:02:49;9.07;;;3.37;;
12719;SDS011;6424;48.520;11.228;2023-04-15T13:05:14;6.93;;;3.57;;
12719;SDS011;6424;48.520;11.228;2023-04-15T13:07:56;6.77;;;3.80;;
12719;SDS011;6424;48.520;11.228;2023-04-15T13:10:37;6.27;;;3.50;;
12719;SDS011;6424;48.520;11.228;2023-04-15T13:13:17;3.57;;;3.10;;
12719;SDS011;6424;48.520;11.228;2023-04-15T13:15:58;4.67;;;2.90;;
12719;SDS011;6424;48.520;11.228;2023-04-15T13:18:39;4.90;;;3.30;;
12719;SDS011;6424;48.520;11.228;2023-04-15T13:21:05;6.17;;;3.43;;
12719;SDS011;6424;48.520;11.228;2023-04-15T13:23:47;7.63;;;3.77;;
12719;SDS011;6424;48.520;11.228;2023-04-15T13:26:29;3.60;;;3.30;;
12719;SDS011;6424;48.520;11.228;2023-04-15T13:29:10;7.27;;;3.57;;
12719;SDS011;6424;48.520;11.228;2023-04-15T13:31:53;3.50;;;3.20;;
12719;SDS011;6424;48.520;11.228;2023-04-15T13:34:34;4.27;;;3.80;;
12719;SDS011;6424;48.520;11.228;2023-04-15T13:37:14;5.57;;;3.80;;
12719;SDS011;6424;48.520;11.228;2023-04-15T13:39:55;4.00;;;3.50;;
12719;SDS011;6424;48.520;11.228;2023-04-15T13:42:22;9.33;;;4.33;;
12719;SDS011;6424;48.520;11.228;2023-04-15T13:45:03;6.97;;;3.93;;
12719;SDS011;6424;48.520;11.228;2023-04-15T13:47:44;6.57;;;4.20;;
12719;SDS011;6424;48.520;11.228;2023-04-15T13:50:25;6.60;;;4.53;;
12719;SDS011;6424;48.520;11.228;2023-04-15T13:53:06;6.83;;;4.10;;
12719;SDS011;6424;48.520;11.228;2023-04-15T13:55:47;8.63;;;4.57;;
12719;SDS011;6424;48.520;11.228;2023-04-15T13:58:28;7.80;;;4.30;;
12719;SDS011;6424;48.520;11.228;2023-04-15T14:01:09;5.57;;;4.23;;
12719;SDS011;6424;48.520;11.228;2023-04-15T14:03:49;8.20;;;5.30;;
12719;SDS011;6424;48.520;11.228;2023-04-15T14:06:30;6.97;;;5.23;;
12719;SDS011;6424;48.520;11.228;2023-04-15T14:09:11;5.23;;;4.30;;
12719;SDS011;6424;48.520;11.228;2023-04-15T14:11:37;4.67;;;4.10;;
12719;SDS011;6424;48.520;11.228;2023-04-15T14:14:18;5.23;;;4.30;;
12719;SDS011;6424;48.520;11.228;2023-04-15T14:16:59;4.17;;;3.70;;
12719;SDS011;6424;48.520;11.228;2023-04-15T14:19:26;7.73;;;5.30;;
12719;SDS011;6424;48.520;11.228;2023-04-15T14:22:09;12.27;;;8.90;;
12719;SDS011;6424;48.520;11.228;2023-04-15T14:24:49;6.40;;;5.00;;
12719;SDS011;6424;48.520;11.228;2023-04-15T14:27:32;5.43;;;4.30;;
12719;SDS011;6424;48.520;11.228;2023-04-15T14:30:13;4.07;;;3.50;;
12719;SDS011;6424;48.520;11.228;2023-04-15T14:32:54;3.97;;;3.57;;
12719;SDS011;6424;48.520;11.228;2023-04-15T14:35:35;4.57;;;4.03;;
12719;SDS011;6424;48.520;11.228;2023-04-15T14:38:16;4.43;;;4.03;;
12719;SDS011;6424;48.520;11.228;2023-04-15T14:40:57;5.63;;;4.60;;
12719;SDS011;6424;48.520;11.228;2023-04-15T14:43:22;5.13;;;4.00;;
12719;SDS011;6424;48.520;11.228;2023-04-15T14:46:03;5.60;;;4.03;;
12719;SDS011;6424;48.520;11.228;2023-04-15T14:48:44;5.23;;;4.73;;
12719;SDS011;6424;48.520;11.228;2023-04-15T14:51:25;6.07;;;4.43;;
12719;SDS011;6424;48.520;11.228;2023-04-15T14:54:06;6.00;;;4.43;;
12719;SDS011;6424;48.520;11.228;2023-04-15T14:56:46;4.73;;;4.30;;
12719;SDS011;6424;48.520;11.228;2023-04-15T14:59:27;9.07;;;6.90;;
12719;SDS011;6424;48.520;11.228;2023-04-15T15:02:08;7.30;;;6.17;;
12719;SDS011;6424;48.520;11.228;2023-04-15T15:04:49;6.90;;;6.07;;
12719;SDS011;6424;48.520;11.228;2023-04-15T15:07:30;6.57;;;5.53;;
12719;SDS011;6424;48.520;11.228;2023-04-15T15:10:10;6.70;;;5.83;;
12719;SDS011;6424;48.520;11.228;2023-04-15T15:12:51;7.93;;;5.97;;
12719;SDS011;6424;48.520;11.228;2023-04-15T15:15:32;8.83;;;6.53;;
12719;SDS011;6424;48.520;11.228;2023-04-15T15:18:14;17.30;;;13.43;;
12719;SDS011;6424;48.520;11.228;2023-04-15T15:20:55;19.90;;;15.07;;
12719;SDS011;6424;48.520;11.228;2023-04-15T15:23:36;19.97;;;15.67;;
12719;SDS011;6424;48.520;11.228;2023-04-15T15:26:17;15.87;;;13.07;;
12719;SDS011;6424;48.520;11.228;2023-04-15T15:28:58;17.23;;;15.40;;
12719;SDS011;6424;48.520;11.228;2023-04-15T15:31:39;8.10;;;7.30;;
12719;SDS011;6424;48.520;11.228;2023-04-15T15:34:20;8.67;;;6.43;;
12719;SDS011;6424;48.520;11.228;2023-04-15T15:37:00;9.70;;;7.43;;
12719;SDS011;6424;48.520;11.228;2023-04-15T15:39:41;9.03;;;7.33;;
12719;SDS011;6424;48.520;11.228;2023-04-15T15:42:22;7.77;;;5.90;;
12719;SDS011;6424;48.520;11.228;2023-04-15T15:45:03;14.63;;;10.67;;
12719;SDS011;6424;48.520;11.228;2023-04-15T15:47:44;14.77;;;11.03;;
12719;SDS011;6424;48.520;11.228;2023-04-15T15:50:25;9.90;;;8.50;;
12719;SDS011;6424;48.520;11.228;2023-04-15T15:52:51;12.47;;;6.87;;
12719;SDS011;6424;48.520;11.228;2023-04-15T15:55:16;7.87;;;7.10;;
12719;SDS011;6424;48.520;11.228;2023-04-15T15:57:57;9.73;;;7.90;;
12719;SDS011;6424;48.520;11.228;2023-04-15T16:00:38;9.03;;;8.03;;
12719;SDS011;6424;48.520;11.228;2023-04-15T16:03:19;12.03;;;10.33;;
12719;SDS011;6424;48.520;11.228;2023-04-15T16:06:00;14.70;;;12.10;;